sensor_id;sensor_type;location;lat;lon;timestamp;pressure;altitude;pressure_sealevel;temperature;humidity
49585;BME280;35491;49.142;9.210;2023-04-07T08:31:06;99739.28;;;12.37;55.92
49585;BME280;35491;49.142;9.210;2023-04-07T08:32:22;99746.25;;;12.13;55.34
49585;BME280;35491;49.142;9.210;2023-04-07T08:42:33;99748.81;;;12.40;55.70
49585;BME280;35491;49.142;9.210;2023-04-07T08:43:58;99745.66;;;12.44;55.08
49585;BME280;35491;49.142;9.210;2023-04-07T08:58:30;99755.44;;;12.70;54.18
49585;BME280;35491;49.142;9.210;2023-04-07T08:59:34;99765.59;;;12.42;54.27
49585;BME280;35491;49.142;9.210;2023-04-07T09:00:50;99766.28;;;12.44;54.88
49585;BME280;35491;49.142;9.210;2023-04-07T09:01:54;99766.59;;;12.41;55.34
49585;BME280;35491;49.142;9.210;2023-04-07T09:02:57;99768.78;;;12.45;54.93
49585;BME280;35491;49.142;9.210;2023-04-07T09:04:04;99770.66;;;12.53;54.61
49585;BME280;35491;49.142;9.210;2023-04-07T09:05:19;99770.66;;;12.53;54.49
49585;BME280;35491;49.142;9.210;2023-04-07T09:06:21;99760.56;;;12.47;54.25
49585;BME280;35491;49.142;9.210;2023-04-07T09:07:25;99760.94;;;12.52;54.50
49585;BME280;35491;49.142;9.210;2023-04-07T09:08:26;99765.44;;;12.52;54.60
49585;BME280;35491;49.142;9.210;2023-04-07T09:09:30;99767.09;;;12.36;54.74
49585;BME280;35491;49.142;9.210;2023-04-07T09:10:34;99773.88;;;12.14;55.45
49585;BME280;35491;49.142;9.210;2023-04-07T09:11:46;99772.00;;;12.06;55.29
49585;BME280;35491;49.142;9.210;2023-04-07T09:12:57;99771.06;;;12.24;55.11
49585;BME280;35491;49.142;9.210;2023-04-07T09:14:01;99766.88;;;12.29;55.04
49585;BME280;35491;49.142;9.210;2023-04-07T09:15:05;99768.44;;;12.32;55.13
49585;BME280;35491;49.142;9.210;2023-04-07T09:16:10;99774.28;;;12.36;55.02
49585;BME280;35491;49.142;9.210;2023-04-07T09:17:32;99768.56;;;12.30;54.63
49585;BME280;35491;49.142;9.210;2023-04-07T09:18:36;99775.59;;;12.23;55.14
49585;BME280;35491;49.142;9.210;2023-04-07T09:19:44;99772.38;;;12.11;55.50
49585;BME280;35491;49.142;9.210;2023-04-07T09:20:55;99772.59;;;11.92;55.95
49585;BME280;35491;49.142;9.210;2023-04-07T09:21:57;99772.84;;;11.80;55.76
49585;BME280;35491;49.142;9.210;2023-04-07T09:23:01;99775.72;;;11.79;56.21
49585;BME280;35491;49.142;9.210;2023-04-07T09:24:08;99762.66;;;11.84;56.22
49585;BME280;35491;49.142;9.210;2023-04-07T09:25:32;99770.22;;;11.89;55.87
49585;BME280;35491;49.142;9.210;2023-04-07T09:26:36;99771.72;;;11.91;55.94
49585;BME280;35491;49.142;9.210;2023-04-07T09:27:37;99770.78;;;12.00;55.74
49585;BME280;35491;49.142;9.210;2023-04-07T09:28:41;99771.84;;;12.08;55.85
49585;BME280;35491;49.142;9.210;2023-04-07T09:29:46;99779.25;;;12.14;55.87
49585;BME280;35491;49.142;9.210;2023-04-07T09:30:52;99776.91;;;12.19;55.51
49585;BME280;35491;49.142;9.210;2023-04-07T09:31:54;99775.84;;;12.04;55.40
49585;BME280;35491;49.142;9.210;2023-04-07T09:32:59;99777.47;;;11.96;55.40
49585;BME280;35491;49.142;9.210;2023-04-07T09:34:00;99777.53;;;12.05;55.64
49585;BME280;35491;49.142;9.210;2023-04-07T09:35:06;99774.84;;;12.05;55.64
49585;BME280;35491;49.142;9.210;2023-04-07T09:36:10;99778.56;;;11.85;55.58
49585;BME280;35491;49.142;9.210;2023-04-07T09:37:20;99772.31;;;11.68;56.53
49585;BME280;35491;49.142;9.210;2023-04-07T09:38:34;99780.91;;;11.54;57.38
49585;BME280;35491;49.142;9.210;2023-04-07T09:39:47;99777.22;;;11.55;57.43
49585;BME280;35491;49.142;9.210;2023-04-07T09:40:48;99777.88;;;11.49;57.81
49585;BME280;35491;49.142;9.210;2023-04-07T09:41:53;99786.88;;;11.48;58.33
49585;BME280;35491;49.142;9.210;2023-04-07T09:42:54;99774.66;;;11.45;58.53
49585;BME280;35491;49.142;9.210;2023-04-07T09:43:58;99785.72;;;11.50;58.60
49585;BME280;35491;49.142;9.210;2023-04-07T09:45:01;99783.47;;;11.64;58.05
49585;BME280;35491;49.142;9.210;2023-04-07T09:46:06;99782.38;;;11.75;58.27
49585;BME280;35491;49.142;9.210;2023-04-07T09:47:08;99777.69;;;11.77;58.04
49585;BME280;35491;49.142;9.210;2023-04-07T09:48:17;99781.31;;;11.67;58.06
49585;BME280;35491;49.142;9.210;2023-04-07T09:49:18;99786.72;;;11.76;57.73
49585;BME280;35491;49.142;9.210;2023-04-07T09:50:32;99772.38;;;11.85;57.64
49585;BME280;35491;49.142;9.210;2023-04-07T09:51:34;99778.28;;;11.97;57.47
49585;BME280;35491;49.142;9.210;2023-04-07T09:52:48;99785.28;;;11.90;57.36
49585;BME280;35491;49.142;9.210;2023-04-07T09:53:50;99779.25;;;11.88;57.16
49585;BME280;35491;49.142;9.210;2023-04-07T09:55:02;99780.72;;;11.82;57.21
49585;BME280;35491;49.142;9.210;2023-04-07T09:56:05;99776.22;;;12.09;57.25
49585;BME280;35491;49.142;9.210;2023-04-07T09:57:10;99778.81;;;12.35;56.68
49585;BME280;35491;49.142;9.210;2023-04-07T09:58:11;99779.22;;;12.65;55.82
49585;BME280;35491;49.142;9.210;2023-04-07T09:59:16;99775.22;;;13.02;55.15
49585;BME280;35491;49.142;9.210;2023-04-07T10:00:20;99771.38;;;12.97;54.21
49585;BME280;35491;49.142;9.210;2023-04-07T10:01:24;99767.50;;;12.91;54.09
49585;BME280;35491;49.142;9.210;2023-04-07T10:02:28;99767.69;;;12.98;54.10
49585;BME280;35491;49.142;9.210;2023-04-07T10:03:29;99767.19;;;12.94;54.40
49585;BME280;35491;49.142;9.210;2023-04-07T10:04:34;99774.41;;;12.93;54.54
49585;BME280;35491;49.142;9.210;2023-04-07T10:05:39;99769.69;;;12.95;54.42
49585;BME280;35491;49.142;9.210;2023-04-07T10:06:41;99768.69;;;13.21;54.18
49585;BME280;35491;49.142;9.210;2023-04-07T10:07:45;99764.31;;;13.45;53.48
49585;BME280;35491;49.142;9.210;2023-04-07T10:08:46;99768.28;;;13.74;53.20
49585;BME280;35491;49.142;9.210;2023-04-07T10:09:50;99769.19;;;14.06;52.70
49585;BME280;35491;49.142;9.210;2023-04-07T10:10:54;99763.06;;;14.20;51.76
49585;BME280;35491;49.142;9.210;2023-04-07T10:11:56;99757.97;;;14.34;51.48
49585;BME280;35491;49.142;9.210;2023-04-07T10:13:00;99759.38;;;14.53;51.35
49585;BME280;35491;49.142;9.210;2023-04-07T10:14:08;99758.06;;;14.80;50.67
49585;BME280;35491;49.142;9.210;2023-04-07T10:15:12;99751.78;;;14.57;50.49
49585;BME280;35491;49.142;9.210;2023-04-07T10:16:17;99760.38;;;14.52;50.89
49585;BME280;35491;49.142;9.210;2023-04-07T10:17:21;99763.94;;;14.21;50.78
49585;BME280;35491;49.142;9.210;2023-04-07T10:18:28;99753.81;;;14.23;50.55
49585;BME280;35491;49.142;9.210;2023-04-07T10:19:32;99753.59;;;14.33;50.81
49585;BME280;35491;49.142;9.210;2023-04-07T10:20:37;99755.50;;;14.24;50.69
49585;BME280;35491;49.142;9.210;2023-04-07T10:21:40;99762.44;;;14.10;49.66
49585;BME280;35491;49.142;9.210;2023-04-07T10:22:44;99758.22;;;14.47;50.23
49585;BME280;35491;49.142;9.210;2023-04-07T10:23:48;99750.91;;;14.33;50.43
49585;BME280;35491;49.142;9.210;2023-04-07T10:24:57;99755.91;;;14.44;49.78
49585;BME280;35491;49.142;9.210;2023-04-07T10:25:59;99753.78;;;14.63;49.96
49585;BME280;35491;49.142;9.210;2023-04-07T10:27:06;99758.88;;;14.81;49.92
49585;BME280;35491;49.142;9.210;2023-04-07T10:28:08;99757.56;;;14.77;49.84
49585;BME280;35491;49.142;9.210;2023-04-07T10:29:12;99761.41;;;14.82;48.77
49585;BME280;35491;49.142;9.210;2023-04-07T10:30:16;99753.88;;;14.78;48.87
49585;BME280;35491;49.142;9.210;2023-04-07T10:31:24;99753.91;;;14.70;48.26
49585;BME280;35491;49.142;9.210;2023-04-07T10:32:28;99757.56;;;14.45;48.21
49585;BME280;35491;49.142;9.210;2023-04-07T10:33:45;99760.47;;;14.04;48.02
49585;BME280;35491;49.142;9.210;2023-04-07T10:34:56;99762.19;;;13.97;49.04
49585;BME280;35491;49.142;9.210;2023-04-07T10:36:04;99765.38;;;13.92;49.35
49585;BME280;35491;49.142;9.210;2023-04-07T10:37:08;99763.13;;;14.12;49.55
49585;BME280;35491;49.142;9.210;2023-04-07T10:38:11;99754.97;;;14.29;49.35
49585;BME280;35491;49.142;9.210;2023-04-07T10:39:19;99751.16;;;14.15;48.31
49585;BME280;35491;49.142;9.210;2023-04-07T10:40:27;99758.13;;;14.01;48.43
49585;BME280;35491;49.142;9.210;2023-04-07T10:41:31;99753.97;;;13.90;49.13
49585;BME280;35491;49.142;9.210;2023-04-07T10:42:45;99754.56;;;13.69;48.85
49585;BME280;35491;49.142;9.210;2023-04-07T10:43:49;99758.56;;;13.65;49.86
49585;BME280;35491;49.142;9.210;2023-04-07T10:44:51;99758.84;;;13.86;49.90
49585;BME280;35491;49.142;9.210;2023-04-07T10:45:55;99755.13;;;13.96;50.14
49585;BME280;35491;49.142;9.210;2023-04-07T10:47:04;99751.44;;;13.97;49.78
49585;BME280;35491;49.142;9.210;2023-04-07T10:48:09;99754.56;;;14.09;49.22
49585;BME280;35491;49.142;9.210;2023-04-07T10:49:10;99753.03;;;14.14;49.10
49585;BME280;35491;49.142;9.210;2023-04-07T10:50:15;99748.31;;;14.16;49.30
49585;BME280;35491;49.142;9.210;2023-04-07T10:51:17;99751.50;;;14.20;48.72
49585;BME280;35491;49.142;9.210;2023-04-07T10:52:21;99756.72;;;14.13;48.93
49585;BME280;35491;49.142;9.210;2023-04-07T10:53:23;99759.59;;;14.12;49.34
49585;BME280;35491;49.142;9.210;2023-04-07T10:54:27;99755.69;;;14.23;49.02
49585;BME280;35491;49.142;9.210;2023-04-07T10:55:32;99755.38;;;14.09;49.34
49585;BME280;35491;49.142;9.210;2023-04-07T10:58:15;99770.22;;;14.05;49.28
49585;BME280;35491;49.142;9.210;2023-04-07T10:59:19;99759.09;;;14.08;48.82
49585;BME280;35491;49.142;9.210;2023-04-07T11:00:27;99760.09;;;14.15;49.10
49585;BME280;35491;49.142;9.210;2023-04-07T11:01:28;99765.28;;;14.17;48.66
49585;BME280;35491;49.142;9.210;2023-04-07T11:02:36;99762.59;;;14.17;48.81
49585;BME280;35491;49.142;9.210;2023-04-07T11:03:38;99762.81;;;14.07;48.49
49585;BME280;35491;49.142;9.210;2023-04-07T11:04:43;99767.16;;;14.16;48.70
49585;BME280;35491;49.142;9.210;2023-04-07T11:05:44;99754.53;;;14.17;48.66
49585;BME280;35491;49.142;9.210;2023-04-07T11:06:48;99748.63;;;14.22;48.50
49585;BME280;35491;49.142;9.210;2023-04-07T11:07:50;99758.03;;;14.26;48.47
49585;BME280;35491;49.142;9.210;2023-04-07T11:08:55;99750.31;;;14.23;48.36
49585;BME280;35491;49.142;9.210;2023-04-07T11:10:07;99754.81;;;14.22;48.48
49585;BME280;35491;49.142;9.210;2023-04-07T11:11:12;99757.34;;;14.24;48.31
49585;BME280;35491;49.142;9.210;2023-04-07T11:12:22;99755.75;;;14.06;48.60
49585;BME280;35491;49.142;9.210;2023-04-07T11:13:23;99760.44;;;14.12;48.56
49585;BME280;35491;49.142;9.210;2023-04-07T11:14:27;99752.66;;;14.17;48.75
49585;BME280;35491;49.142;9.210;2023-04-07T11:15:29;99746.75;;;14.22;48.77
49585;BME280;35491;49.142;9.210;2023-04-07T11:16:34;99750.97;;;14.25;48.83
49585;BME280;35491;49.142;9.210;2023-04-07T11:17:38;99740.03;;;14.26;48.48
49585;BME280;35491;49.142;9.210;2023-04-07T11:18:42;99742.38;;;14.29;48.20
49585;BME280;35491;49.142;9.210;2023-04-07T11:19:50;99747.56;;;14.31;48.68
49585;BME280;35491;49.142;9.210;2023-04-07T11:20:52;99750.25;;;14.31;47.96
49585;BME280;35491;49.142;9.210;2023-04-07T11:23:17;99741.56;;;14.20;48.85
49585;BME280;35491;49.142;9.210;2023-04-07T11:24:30;99744.88;;;14.31;48.63
49585;BME280;35491;49.142;9.210;2023-04-07T11:25:35;99739.09;;;14.42;48.13
49585;BME280;35491;49.142;9.210;2023-04-07T11:26:36;99749.47;;;14.54;47.84
49585;BME280;35491;49.142;9.210;2023-04-07T11:27:42;99745.25;;;14.19;47.19
49585;BME280;35491;49.142;9.210;2023-04-07T11:28:44;99748.41;;;13.92;47.11
49585;BME280;35491;49.142;9.210;2023-04-07T11:29:48;99757.31;;;13.92;47.40
49585;BME280;35491;49.142;9.210;2023-04-07T11:30:50;99753.59;;;14.01;47.48
49585;BME280;35491;49.142;9.210;2023-04-07T11:31:54;99753.19;;;14.13;47.56
49585;BME280;35491;49.142;9.210;2023-04-07T11:33:03;99746.81;;;14.14;47.67
49585;BME280;35491;49.142;9.210;2023-04-07T11:34:04;99749.81;;;14.19;47.43
49585;BME280;35491;49.142;9.210;2023-04-07T11:35:08;99745.13;;;14.21;47.33
49585;BME280;35491;49.142;9.210;2023-04-07T11:36:10;99742.91;;;14.25;47.17
49585;BME280;35491;49.142;9.210;2023-04-07T11:37:20;99747.31;;;14.41;47.29
49585;BME280;35491;49.142;9.210;2023-04-07T11:38:22;99749.13;;;14.48;46.91
49585;BME280;35491;49.142;9.210;2023-04-07T11:39:26;99750.09;;;14.56;46.76
49585;BME280;35491;49.142;9.210;2023-04-07T11:40:31;99749.75;;;14.59;46.71
49585;BME280;35491;49.142;9.210;2023-04-07T11:41:43;99753.28;;;14.28;47.25
49585;BME280;35491;49.142;9.210;2023-04-07T11:42:48;99752.56;;;14.42;47.27
49585;BME280;35491;49.142;9.210;2023-04-07T11:44:02;99746.78;;;14.45;47.37
49585;BME280;35491;49.142;9.210;2023-04-07T11:45:14;99756.19;;;14.49;47.12
49585;BME280;35491;49.142;9.210;2023-04-07T11:46:19;99757.16;;;14.57;46.96
49585;BME280;35491;49.142;9.210;2023-04-07T11:47:32;99754.47;;;14.57;46.34
49585;BME280;35491;49.142;9.210;2023-04-07T11:48:38;99757.16;;;14.57;46.61
49585;BME280;35491;49.142;9.210;2023-04-07T11:49:43;99755.19;;;14.50;46.60
49585;BME280;35491;49.142;9.210;2023-04-07T11:50:45;99758.88;;;14.49;46.92
49585;BME280;35491;49.142;9.210;2023-04-07T11:51:56;99753.22;;;14.36;46.26
49585;BME280;35491;49.142;9.210;2023-04-07T11:53:00;99755.16;;;14.27;46.59
49585;BME280;35491;49.142;9.210;2023-04-07T11:54:01;99753.22;;;14.36;46.91
49585;BME280;35491;49.142;9.210;2023-04-07T11:55:05;99756.25;;;14.41;46.70
49585;BME280;35491;49.142;9.210;2023-04-07T11:56:07;99750.19;;;14.39;46.98
49585;BME280;35491;49.142;9.210;2023-04-07T11:57:23;99755.59;;;14.39;46.78
49585;BME280;35491;49.142;9.210;2023-04-07T11:58:27;99754.28;;;14.35;46.83
49585;BME280;35491;49.142;9.210;2023-04-07T11:59:28;99749.19;;;14.40;46.65
49585;BME280;35491;49.142;9.210;2023-04-07T12:00:32;99756.31;;;14.33;46.36
49585;BME280;35491;49.142;9.210;2023-04-07T12:01:39;99748.09;;;14.26;46.76
49585;BME280;35491;49.142;9.210;2023-04-07T12:02:44;99754.97;;;14.29;46.88
49585;BME280;35491;49.142;9.210;2023-04-07T12:03:58;99755.44;;;14.32;46.66
49585;BME280;35491;49.142;9.210;2023-04-07T12:05:02;99755.75;;;14.06;46.39
49585;BME280;35491;49.142;9.210;2023-04-07T12:06:06;99752.22;;;14.06;46.79
49585;BME280;35491;49.142;9.210;2023-04-07T12:07:10;99755.69;;;13.83;46.86
49585;BME280;35491;49.142;9.210;2023-04-07T12:08:12;99750.31;;;13.83;47.41
49585;BME280;35491;49.142;9.210;2023-04-07T12:09:26;99752.47;;;13.79;47.15
49585;BME280;35491;49.142;9.210;2023-04-07T12:10:31;99753.31;;;13.88;47.31
49585;BME280;35491;49.142;9.210;2023-04-07T12:11:35;99758.13;;;14.01;47.27
49585;BME280;35491;49.142;9.210;2023-04-07T12:12:38;99753.06;;;14.06;47.21
49585;BME280;35491;49.142;9.210;2023-04-07T12:13:40;99751.03;;;14.08;46.70
49585;BME280;35491;49.142;9.210;2023-04-07T12:14:43;99747.66;;;14.14;46.73
49585;BME280;35491;49.142;9.210;2023-04-07T12:15:44;99748.13;;;14.18;46.71
49585;BME280;35491;49.142;9.210;2023-04-07T12:16:48;99753.38;;;14.11;46.11
49585;BME280;35491;49.142;9.210;2023-04-07T12:17:50;99749.03;;;14.02;46.59
49585;BME280;35491;49.142;9.210;2023-04-07T12:18:57;99748.72;;;14.05;46.75
49585;BME280;35491;49.142;9.210;2023-04-07T12:20:02;99749.22;;;14.00;46.96
49585;BME280;35491;49.142;9.210;2023-04-07T12:21:03;99746.16;;;14.12;46.87
49585;BME280;35491;49.142;9.210;2023-04-07T12:22:07;99743.25;;;14.22;46.48
49585;BME280;35491;49.142;9.210;2023-04-07T12:23:08;99745.53;;;14.33;46.12
49585;BME280;35491;49.142;9.210;2023-04-07T12:24:12;99752.22;;;14.37;45.88
49585;BME280;35491;49.142;9.210;2023-04-07T12:25:16;99758.41;;;14.14;46.25
49585;BME280;35491;49.142;9.210;2023-04-07T12:26:17;99756.25;;;14.10;46.68
49585;BME280;35491;49.142;9.210;2023-04-07T12:27:21;99753.72;;;14.08;46.43
49585;BME280;35491;49.142;9.210;2023-04-07T12:28:25;99754.00;;;14.22;46.51
49585;BME280;35491;49.142;9.210;2023-04-07T12:29:27;99749.25;;;14.32;46.29
49585;BME280;35491;49.142;9.210;2023-04-07T12:30:31;99739.69;;;14.29;45.67
49585;BME280;35491;49.142;9.210;2023-04-07T12:31:32;99743.38;;;14.28;45.65
49585;BME280;35491;49.142;9.210;2023-04-07T12:32:36;99751.06;;;14.40;45.94
49585;BME280;35491;49.142;9.210;2023-04-07T12:33:38;99743.28;;;14.45;45.66
49585;BME280;35491;49.142;9.210;2023-04-07T12:34:44;99750.00;;;14.49;45.70
49585;BME280;35491;49.142;9.210;2023-04-07T12:35:47;99750.09;;;14.56;45.77
49585;BME280;35491;49.142;9.210;2023-04-07T12:36:51;99739.31;;;14.64;45.47
49585;BME280;35491;49.142;9.210;2023-04-07T12:37:55;99739.13;;;14.65;45.13
49585;BME280;35491;49.142;9.210;2023-04-07T12:38:56;99736.41;;;14.74;45.43
49585;BME280;35491;49.142;9.210;2023-04-07T12:40:00;99748.50;;;14.78;44.93
49585;BME280;35491;49.142;9.210;2023-04-07T12:41:02;99737.81;;;14.85;45.08
49585;BME280;35491;49.142;9.210;2023-04-07T12:42:05;99743.19;;;14.85;45.15
49585;BME280;35491;49.142;9.210;2023-04-07T12:43:08;99740.34;;;14.86;45.24
49585;BME280;35491;49.142;9.210;2023-04-07T12:44:12;99745.66;;;14.71;45.41
49585;BME280;35491;49.142;9.210;2023-04-07T12:45:16;99745.06;;;14.84;45.23
49585;BME280;35491;49.142;9.210;2023-04-07T12:46:17;99741.84;;;14.89;44.94
49585;BME280;35491;49.142;9.210;2023-04-07T12:47:22;99736.66;;;14.87;44.87
49585;BME280;35491;49.142;9.210;2023-04-07T12:48:23;99745.06;;;14.84;45.18
49585;BME280;35491;49.142;9.210;2023-04-07T12:49:27;99738.47;;;14.87;45.41
49585;BME280;35491;49.142;9.210;2023-04-07T12:50:31;99737.75;;;14.93;45.26
49585;BME280;35491;49.142;9.210;2023-04-07T12:51:34;99739.22;;;14.80;45.10
49585;BME280;35491;49.142;9.210;2023-04-07T12:52:37;99737.00;;;14.84;45.20
49585;BME280;35491;49.142;9.210;2023-04-07T12:53:41;99738.28;;;14.88;44.78
49585;BME280;35491;49.142;9.210;2023-04-07T12:54:42;99737.22;;;14.97;45.02
49585;BME280;35491;49.142;9.210;2023-04-07T12:55:46;99732.63;;;14.83;44.50
49585;BME280;35491;49.142;9.210;2023-04-07T12:56:48;99738.25;;;14.73;45.13
49585;BME280;35491;49.142;9.210;2023-04-07T12:57:52;99736.34;;;14.82;45.34
49585;BME280;35491;49.142;9.210;2023-04-07T12:58:53;99735.78;;;14.87;45.29
49585;BME280;35491;49.142;9.210;2023-04-07T12:59:57;99735.50;;;14.81;45.45
49585;BME280;35491;49.142;9.210;2023-04-07T13:00:58;99732.38;;;14.93;45.24
49585;BME280;35491;49.142;9.210;2023-04-07T13:02:02;99736.47;;;14.89;45.50
49585;BME280;35491;49.142;9.210;2023-04-07T13:03:03;99740.88;;;14.81;46.18
49585;BME280;35491;49.142;9.210;2023-04-07T13:04:07;99736.28;;;14.67;45.70
49585;BME280;35491;49.142;9.210;2023-04-07T13:05:08;99736.22;;;14.75;45.74
49585;BME280;35491;49.142;9.210;2023-04-07T13:06:15;99740.22;;;14.79;45.82
49585;BME280;35491;49.142;9.210;2023-04-07T13:07:17;99735.94;;;14.70;45.83
49585;BME280;35491;49.142;9.210;2023-04-07T13:08:21;99737.53;;;14.79;45.89
49585;BME280;35491;49.142;9.210;2023-04-07T13:09:26;99740.34;;;14.86;45.50
49585;BME280;35491;49.142;9.210;2023-04-07T13:10:28;99735.06;;;14.93;45.43
49585;BME280;35491;49.142;9.210;2023-04-07T13:11:31;99739.91;;;14.97;45.34
49585;BME280;35491;49.142;9.210;2023-04-07T13:12:32;99735.19;;;15.00;45.56
49585;BME280;35491;49.142;9.210;2023-04-07T13:13:36;99737.13;;;14.91;45.15
49585;BME280;35491;49.142;9.210;2023-04-07T13:14:40;99736.47;;;14.89;45.39
49585;BME280;35491;49.142;9.210;2023-04-07T13:15:45;99736.13;;;14.60;46.56
49585;BME280;35491;49.142;9.210;2023-04-07T13:16:49;99738.84;;;14.52;47.08
49585;BME280;35491;49.142;9.210;2023-04-07T13:17:50;99735.34;;;14.51;47.09
49585;BME280;35491;49.142;9.210;2023-04-07T13:18:54;99735.56;;;14.42;47.59
49585;BME280;35491;49.142;9.210;2023-04-07T13:19:55;99742.13;;;14.39;47.66
49585;BME280;35491;49.142;9.210;2023-04-07T13:20:58;99736.09;;;14.37;47.80
49585;BME280;35491;49.142;9.210;2023-04-07T13:22:05;99739.84;;;14.28;47.62
49585;BME280;35491;49.142;9.210;2023-04-07T13:23:09;99741.56;;;14.20;48.01
49585;BME280;35491;49.142;9.210;2023-04-07T13:24:13;99741.91;;;14.26;48.16
49585;BME280;35491;49.142;9.210;2023-04-07T13:25:14;99733.09;;;14.32;47.92
49585;BME280;35491;49.142;9.210;2023-04-07T13:26:18;99738.97;;;14.35;47.81
49585;BME280;35491;49.142;9.210;2023-04-07T13:27:19;99734.78;;;14.33;47.58
49585;BME280;35491;49.142;9.210;2023-04-07T13:28:22;99744.53;;;14.34;47.62
49585;BME280;35491;49.142;9.210;2023-04-07T13:29:27;99738.84;;;14.29;47.27
49585;BME280;35491;49.142;9.210;2023-04-07T13:30:28;99743.97;;;14.15;47.37
49585;BME280;35491;49.142;9.210;2023-04-07T13:31:32;99743.09;;;14.15;47.71
49585;BME280;35491;49.142;9.210;2023-04-07T13:32:33;99741.78;;;14.11;47.75
49585;BME280;35491;49.142;9.210;2023-04-07T13:33:37;99738.25;;;14.10;47.80
49585;BME280;35491;49.142;9.210;2023-04-07T13:34:41;99745.69;;;14.00;48.09
49585;BME280;35491;49.142;9.210;2023-04-07T13:35:43;99747.09;;;13.87;48.13
49585;BME280;35491;49.142;9.210;2023-04-07T13:36:47;99746.47;;;13.77;48.34
49585;BME280;35491;49.142;9.210;2023-04-07T13:37:53;99746.13;;;13.72;48.39
49585;BME280;35491;49.142;9.210;2023-04-07T13:38:57;99753.22;;;13.56;48.47
49585;BME280;35491;49.142;9.210;2023-04-07T13:39:58;99746.03;;;13.49;48.83
49585;BME280;35491;49.142;9.210;2023-04-07T13:41:02;99749.19;;;13.52;48.64
49585;BME280;35491;49.142;9.210;2023-04-07T13:42:03;99745.34;;;13.55;48.30
49585;BME280;35491;49.142;9.210;2023-04-07T13:43:08;99741.63;;;13.64;48.36
49585;BME280;35491;49.142;9.210;2023-04-07T13:44:11;99743.09;;;13.75;48.07
49585;BME280;35491;49.142;9.210;2023-04-07T13:45:15;99745.75;;;13.83;48.00
49585;BME280;35491;49.142;9.210;2023-04-07T13:46:16;99744.72;;;13.93;47.78
49585;BME280;35491;49.142;9.210;2023-04-07T13:47:20;99750.44;;;13.98;47.82
49585;BME280;35491;49.142;9.210;2023-04-07T13:48:22;99750.38;;;14.06;47.44
49585;BME280;35491;49.142;9.210;2023-04-07T13:49:25;99754.22;;;14.12;47.20
49585;BME280;35491;49.142;9.210;2023-04-07T13:50:27;99751.34;;;14.13;46.73
49585;BME280;35491;49.142;9.210;2023-04-07T13:51:30;99755.22;;;14.11;47.00
49585;BME280;35491;49.142;9.210;2023-04-07T13:52:34;99749.75;;;13.96;47.09
49585;BME280;35491;49.142;9.210;2023-04-07T13:53:38;99761.88;;;13.83;47.81
49585;BME280;35491;49.142;9.210;2023-04-07T13:54:42;99755.59;;;13.60;49.74
49585;BME280;35491;49.142;9.210;2023-04-07T13:55:46;99763.31;;;13.38;51.26
49585;BME280;35491;49.142;9.210;2023-04-07T13:56:47;99760.44;;;13.48;50.83
49585;BME280;35491;49.142;9.210;2023-04-07T13:57:51;99749.91;;;13.30;52.00
49585;BME280;35491;49.142;9.210;2023-04-07T13:58:53;99758.44;;;13.08;51.92
49585;BME280;35491;49.142;9.210;2023-04-07T13:59:56;99766.34;;;12.93;52.78
49585;BME280;35491;49.142;9.210;2023-04-07T14:00:57;99752.25;;;12.83;52.89
49585;BME280;35491;49.142;9.210;2023-04-07T14:02:01;99752.59;;;12.88;52.57
49585;BME280;35491;49.142;9.210;2023-04-07T14:03:02;99761.13;;;12.84;53.00
49585;BME280;35491;49.142;9.210;2023-04-07T14:04:07;99761.44;;;12.64;53.21
49585;BME280;35491;49.142;9.210;2023-04-07T14:05:08;99759.63;;;12.64;53.97
49585;BME280;35491;49.142;9.210;2023-04-07T14:06:12;99757.59;;;12.67;54.08
49585;BME280;35491;49.142;9.210;2023-04-07T14:07:13;99759.75;;;12.55;54.42
49585;BME280;35491;49.142;9.210;2023-04-07T14:08:17;99766.13;;;12.62;54.38
49585;BME280;35491;49.142;9.210;2023-04-07T14:09:25;99756.59;;;12.68;54.32
49585;BME280;35491;49.142;9.210;2023-04-07T14:10:27;99761.75;;;12.53;54.84
49585;BME280;35491;49.142;9.210;2023-04-07T14:11:32;99760.75;;;12.62;54.46
49585;BME280;35491;49.142;9.210;2023-04-07T14:12:34;99764.13;;;12.64;54.36
49585;BME280;35491;49.142;9.210;2023-04-07T14:13:37;99761.31;;;12.74;53.82
49585;BME280;35491;49.142;9.210;2023-04-07T14:14:39;99755.25;;;12.80;54.03
49585;BME280;35491;49.142;9.210;2023-04-07T14:15:42;99754.41;;;12.63;54.53
49585;BME280;35491;49.142;9.210;2023-04-07T14:16:44;99763.97;;;12.66;54.83
49585;BME280;35491;49.142;9.210;2023-04-07T14:17:50;99760.63;;;12.80;54.37
49585;BME280;35491;49.142;9.210;2023-04-07T14:18:51;99759.94;;;12.70;54.92
49585;BME280;35491;49.142;9.210;2023-04-07T14:19:55;99769.28;;;12.49;55.68
49585;BME280;35491;49.142;9.210;2023-04-07T14:20:59;99767.59;;;12.48;55.92
49585;BME280;35491;49.142;9.210;2023-04-07T14:22:01;99766.66;;;12.66;55.26
49585;BME280;35491;49.142;9.210;2023-04-07T14:23:05;99765.66;;;12.83;54.60
49585;BME280;35491;49.142;9.210;2023-04-07T14:24:06;99761.31;;;12.90;54.62
49585;BME280;35491;49.142;9.210;2023-04-07T14:25:13;99761.50;;;12.89;54.65
49585;BME280;35491;49.142;9.210;2023-04-07T14:26:16;99774.34;;;12.69;54.88
49585;BME280;35491;49.142;9.210;2023-04-07T14:27:18;99759.81;;;12.79;54.63
49585;BME280;35491;49.142;9.210;2023-04-07T14:28:23;99767.16;;;12.77;53.32
49585;BME280;35491;49.142;9.210;2023-04-07T14:29:24;99765.13;;;12.63;53.11
49585;BME280;35491;49.142;9.210;2023-04-07T14:30:28;99773.16;;;12.55;52.89
49585;BME280;35491;49.142;9.210;2023-04-07T14:31:30;99775.16;;;12.53;52.49
49585;BME280;35491;49.142;9.210;2023-04-07T14:32:34;99771.66;;;12.69;52.12
49585;BME280;35491;49.142;9.210;2023-04-07T14:33:35;99771.19;;;12.73;51.79
49585;BME280;35491;49.142;9.210;2023-04-07T14:34:40;99776.72;;;12.63;51.10
49585;BME280;35491;49.142;9.210;2023-04-07T14:35:41;99774.22;;;12.78;51.26
49585;BME280;35491;49.142;9.210;2023-04-07T14:36:52;99768.34;;;12.83;50.75
49585;BME280;35491;49.142;9.210;2023-04-07T14:37:54;99762.13;;;12.91;50.65